Hallettsville, Texas
Current Conditions -  °F | °C
As of 9:35 PM on Saturday 22 Nov 2014 (Local Time) from K66R Reporting Station
Overcast Overcast  
Wind Chill: 19°   Ceiling: 1700
Heat Index: 19°   Visibility: 10mi
Dew Point: 19°   Wind: 9mph
Humidity: 97%   Direction: 130°SE
Pressure: 29.73"   Gusts: NA
Location:  29.44°N, 96.94°W
Report Text: K66R 230335Z AUTO 13008KT 10SM BKN017 BKN022 OVC028 19/19 A2973 RMK AO2 LTG DSNT ALQS T01910186
Loading
Personal Weather Stations






























Interactive Weather Map New forecast layout! Learn more

10-Day Weather Forecast

Advertisements
Track Severe Weather on mobile